sensor_id;sensor_type;location;lat;lon;timestamp;temperature;humidity
10249;DHT22;5169;50.560;9.714;2022-10-16T00:01:35;14.40;99.90
10249;DHT22;5169;50.560;9.714;2022-10-16T00:04:01;14.50;99.90
10249;DHT22;5169;50.560;9.714;2022-10-16T00:06:31;14.50;99.90
10249;DHT22;5169;50.560;9.714;2022-10-16T00:08:57;14.40;99.90
10249;DHT22;5169;50.560;9.714;2022-10-16T00:11:26;14.50;99.90
10249;DHT22;5169;50.560;9.714;2022-10-16T00:13:56;14.50;99.90
10249;DHT22;5169;50.560;9.714;2022-10-16T00:16:22;14.50;99.90
10249;DHT22;5169;50.560;9.714;2022-10-16T00:18:48;14.50;99.90
10249;DHT22;5169;50.560;9.714;2022-10-16T00:21:17;14.40;99.90
10249;DHT22;5169;50.560;9.714;2022-10-16T00:23:43;14.40;99.90
10249;DHT22;5169;50.560;9.714;2022-10-16T00:26:14;14.40;99.90
10249;DHT22;5169;50.560;9.714;2022-10-16T00:28:40;14.30;99.90
10249;DHT22;5169;50.560;9.714;2022-10-16T00:31:09;14.30;99.90
10249;DHT22;5169;50.560;9.714;2022-10-16T00:33:36;14.30;99.90
10249;DHT22;5169;50.560;9.714;2022-10-16T00:36:03;14.30;99.90
10249;DHT22;5169;50.560;9.714;2022-10-16T00:38:29;14.20;99.90
10249;DHT22;5169;50.560;9.714;2022-10-16T00:40:57;14.20;99.90
10249;DHT22;5169;50.560;9.714;2022-10-16T00:43:45;14.20;99.90
10249;DHT22;5169;50.560;9.714;2022-10-16T00:46:21;14.20;99.90
10249;DHT22;5169;50.560;9.714;2022-10-16T00:48:57;14.10;99.90
10249;DHT22;5169;50.560;9.714;2022-10-16T00:51:36;14.10;99.90
10249;DHT22;5169;50.560;9.714;2022-10-16T00:54:06;14.10;99.90
10249;DHT22;5169;50.560;9.714;2022-10-16T00:56:33;14.10;99.90
10249;DHT22;5169;50.560;9.714;2022-10-16T00:59:00;14.00;99.90
10249;DHT22;5169;50.560;9.714;2022-10-16T01:01:29;14.10;99.90
10249;DHT22;5169;50.560;9.714;2022-10-16T01:03:57;14.10;99.90
10249;DHT22;5169;50.560;9.714;2022-10-16T01:06:32;14.10;99.90
10249;DHT22;5169;50.560;9.714;2022-10-16T01:09:18;14.20;99.90
10249;DHT22;5169;50.560;9.714;2022-10-16T01:14:48;14.20;99.90
10249;DHT22;5169;50.560;9.714;2022-10-16T01:25:30;14.10;99.90
10249;DHT22;5169;50.560;9.714;2022-10-16T01:28:06;14.10;99.90
10249;DHT22;5169;50.560;9.714;2022-10-16T01:30:33;14.20;99.90
10249;DHT22;5169;50.560;9.714;2022-10-16T01:33:21;14.20;99.90
10249;DHT22;5169;50.560;9.714;2022-10-16T01:35:54;14.20;99.90
10249;DHT22;5169;50.560;9.714;2022-10-16T01:38:38;14.20;99.90
10249;DHT22;5169;50.560;9.714;2022-10-16T01:41:30;14.20;99.90
10249;DHT22;5169;50.560;9.714;2022-10-16T01:44:13;14.20;99.90
10249;DHT22;5169;50.560;9.714;2022-10-16T01:46:45;14.20;99.90
10249;DHT22;5169;50.560;9.714;2022-10-16T01:49:11;14.20;99.90
10249;DHT22;5169;50.560;9.714;2022-10-16T01:51:41;14.40;99.90
10249;DHT22;5169;50.560;9.714;2022-10-16T01:54:09;14.40;99.90
10249;DHT22;5169;50.560;9.714;2022-10-16T01:56:41;14.40;99.90
10249;DHT22;5169;50.560;9.714;2022-10-16T01:59:13;14.40;99.90
10249;DHT22;5169;50.560;9.714;2022-10-16T02:01:45;14.40;99.90
10249;DHT22;5169;50.560;9.714;2022-10-16T02:04:20;14.50;99.90
10249;DHT22;5169;50.560;9.714;2022-10-16T02:06:47;14.50;99.90
10249;DHT22;5169;50.560;9.714;2022-10-16T02:09:17;14.40;99.90
10249;DHT22;5169;50.560;9.714;2022-10-16T02:11:45;14.50;99.90
10249;DHT22;5169;50.560;9.714;2022-10-16T02:14:12;14.40;99.90
10249;DHT22;5169;50.560;9.714;2022-10-16T02:16:42;14.40;99.90
10249;DHT22;5169;50.560;9.714;2022-10-16T02:19:08;14.30;99.90
10249;DHT22;5169;50.560;9.714;2022-10-16T02:21:54;14.50;99.90
10249;DHT22;5169;50.560;9.714;2022-10-16T02:24:43;14.50;99.90
10249;DHT22;5169;50.560;9.714;2022-10-16T02:27:39;14.50;99.90
10249;DHT22;5169;50.560;9.714;2022-10-16T02:30:17;14.50;99.90
10249;DHT22;5169;50.560;9.714;2022-10-16T02:32:45;14.50;99.90
10249;DHT22;5169;50.560;9.714;2022-10-16T02:35:16;14.50;99.90
10249;DHT22;5169;50.560;9.714;2022-10-16T02:37:42;14.50;99.90
10249;DHT22;5169;50.560;9.714;2022-10-16T02:40:09;14.50;99.90
10249;DHT22;5169;50.560;9.714;2022-10-16T02:42:38;14.50;99.90
10249;DHT22;5169;50.560;9.714;2022-10-16T02:45:08;14.60;99.90
10249;DHT22;5169;50.560;9.714;2022-10-16T02:47:35;14.60;99.90
10249;DHT22;5169;50.560;9.714;2022-10-16T02:50:03;14.70;99.90
10249;DHT22;5169;50.560;9.714;2022-10-16T02:52:29;14.60;99.90
10249;DHT22;5169;50.560;9.714;2022-10-16T02:54:55;14.70;99.90
10249;DHT22;5169;50.560;9.714;2022-10-16T02:57:23;14.70;99.90
10249;DHT22;5169;50.560;9.714;2022-10-16T02:59:48;14.70;99.90
10249;DHT22;5169;50.560;9.714;2022-10-16T03:02:14;14.60;99.90
10249;DHT22;5169;50.560;9.714;2022-10-16T03:04:40;14.60;99.90
10249;DHT22;5169;50.560;9.714;2022-10-16T03:07:06;14.50;99.90
10249;DHT22;5169;50.560;9.714;2022-10-16T03:09:31;14.50;99.90
10249;DHT22;5169;50.560;9.714;2022-10-16T03:11:59;14.60;99.90
10249;DHT22;5169;50.560;9.714;2022-10-16T03:14:25;14.60;99.90
10249;DHT22;5169;50.560;9.714;2022-10-16T03:16:51;14.60;99.90
10249;DHT22;5169;50.560;9.714;2022-10-16T03:19:19;14.70;99.90
10249;DHT22;5169;50.560;9.714;2022-10-16T03:21:47;14.70;99.90
10249;DHT22;5169;50.560;9.714;2022-10-16T03:24:13;14.60;99.90
10249;DHT22;5169;50.560;9.714;2022-10-16T03:26:39;14.70;99.90
10249;DHT22;5169;50.560;9.714;2022-10-16T03:29:04;14.60;99.90
10249;DHT22;5169;50.560;9.714;2022-10-16T03:31:33;14.60;99.90
10249;DHT22;5169;50.560;9.714;2022-10-16T03:34:00;14.50;99.90
10249;DHT22;5169;50.560;9.714;2022-10-16T03:36:26;14.40;99.90
10249;DHT22;5169;50.560;9.714;2022-10-16T03:38:54;14.40;99.90
10249;DHT22;5169;50.560;9.714;2022-10-16T03:41:23;14.50;99.90
10249;DHT22;5169;50.560;9.714;2022-10-16T03:43:48;14.50;99.90
10249;DHT22;5169;50.560;9.714;2022-10-16T03:46:14;14.60;99.90
10249;DHT22;5169;50.560;9.714;2022-10-16T03:48:39;14.60;99.90
10249;DHT22;5169;50.560;9.714;2022-10-16T03:51:05;14.70;99.90
10249;DHT22;5169;50.560;9.714;2022-10-16T03:53:33;14.50;99.90
10249;DHT22;5169;50.560;9.714;2022-10-16T03:56:04;14.50;99.90
10249;DHT22;5169;50.560;9.714;2022-10-16T03:58:29;14.50;99.90
10249;DHT22;5169;50.560;9.714;2022-10-16T04:00:55;14.50;99.90
10249;DHT22;5169;50.560;9.714;2022-10-16T04:03:23;14.60;99.90
10249;DHT22;5169;50.560;9.714;2022-10-16T04:05:51;14.50;99.90
10249;DHT22;5169;50.560;9.714;2022-10-16T04:08:17;14.50;99.90
10249;DHT22;5169;50.560;9.714;2022-10-16T04:10:43;14.50;99.90
10249;DHT22;5169;50.560;9.714;2022-10-16T04:13:09;14.60;99.90
10249;DHT22;5169;50.560;9.714;2022-10-16T04:15:37;14.50;99.90
10249;DHT22;5169;50.560;9.714;2022-10-16T04:18:04;14.40;99.90
10249;DHT22;5169;50.560;9.714;2022-10-16T04:20:29;14.40;99.90
10249;DHT22;5169;50.560;9.714;2022-10-16T04:22:55;14.40;99.90
10249;DHT22;5169;50.560;9.714;2022-10-16T04:25:21;14.40;99.90
10249;DHT22;5169;50.560;9.714;2022-10-16T04:27:52;14.40;99.90
10249;DHT22;5169;50.560;9.714;2022-10-16T04:30:21;14.40;99.90
10249;DHT22;5169;50.560;9.714;2022-10-16T04:32:50;14.30;99.90
10249;DHT22;5169;50.560;9.714;2022-10-16T04:35:18;14.30;99.90
10249;DHT22;5169;50.560;9.714;2022-10-16T04:37:43;14.30;99.90
10249;DHT22;5169;50.560;9.714;2022-10-16T04:40:12;14.30;99.90
10249;DHT22;5169;50.560;9.714;2022-10-16T04:42:40;14.20;99.90
10249;DHT22;5169;50.560;9.714;2022-10-16T04:45:06;14.20;99.90
10249;DHT22;5169;50.560;9.714;2022-10-16T04:47:35;14.20;99.90
10249;DHT22;5169;50.560;9.714;2022-10-16T04:50:01;14.20;99.90
10249;DHT22;5169;50.560;9.714;2022-10-16T04:52:28;14.20;99.90
10249;DHT22;5169;50.560;9.714;2022-10-16T04:54:57;14.20;99.90
10249;DHT22;5169;50.560;9.714;2022-10-16T04:57:26;14.20;99.90
10249;DHT22;5169;50.560;9.714;2022-10-16T04:59:52;14.10;99.90
10249;DHT22;5169;50.560;9.714;2022-10-16T05:02:20;14.20;99.90
10249;DHT22;5169;50.560;9.714;2022-10-16T05:04:49;14.20;99.90
10249;DHT22;5169;50.560;9.714;2022-10-16T05:07:17;14.20;99.90
10249;DHT22;5169;50.560;9.714;2022-10-16T05:09:42;14.20;99.90
10249;DHT22;5169;50.560;9.714;2022-10-16T05:12:08;14.20;99.90
10249;DHT22;5169;50.560;9.714;2022-10-16T05:14:36;14.20;99.90
10249;DHT22;5169;50.560;9.714;2022-10-16T05:17:02;14.20;99.90
10249;DHT22;5169;50.560;9.714;2022-10-16T05:19:28;14.20;99.90
10249;DHT22;5169;50.560;9.714;2022-10-16T05:21:54;14.20;99.90
10249;DHT22;5169;50.560;9.714;2022-10-16T05:24:19;14.20;99.90
10249;DHT22;5169;50.560;9.714;2022-10-16T05:26:45;14.10;99.90
10249;DHT22;5169;50.560;9.714;2022-10-16T05:29:14;14.20;99.90
10249;DHT22;5169;50.560;9.714;2022-10-16T05:31:40;14.20;99.90
10249;DHT22;5169;50.560;9.714;2022-10-16T05:34:05;14.20;99.90
10249;DHT22;5169;50.560;9.714;2022-10-16T05:36:31;14.10;99.90
10249;DHT22;5169;50.560;9.714;2022-10-16T05:38:59;14.00;99.90
10249;DHT22;5169;50.560;9.714;2022-10-16T05:41:25;14.00;99.90
10249;DHT22;5169;50.560;9.714;2022-10-16T05:43:52;14.00;99.90
10249;DHT22;5169;50.560;9.714;2022-10-16T05:46:18;14.10;99.90
10249;DHT22;5169;50.560;9.714;2022-10-16T05:48:44;14.00;99.90
10249;DHT22;5169;50.560;9.714;2022-10-16T05:51:12;14.10;99.90
10249;DHT22;5169;50.560;9.714;2022-10-16T05:53:39;14.00;99.90
10249;DHT22;5169;50.560;9.714;2022-10-16T05:56:06;14.10;99.90
10249;DHT22;5169;50.560;9.714;2022-10-16T05:58:34;14.20;99.90
10249;DHT22;5169;50.560;9.714;2022-10-16T06:01:03;14.10;99.90
10249;DHT22;5169;50.560;9.714;2022-10-16T06:03:29;14.10;99.90
10249;DHT22;5169;50.560;9.714;2022-10-16T06:05:57;14.10;99.90
10249;DHT22;5169;50.560;9.714;2022-10-16T06:08:23;14.00;99.90
10249;DHT22;5169;50.560;9.714;2022-10-16T06:10:49;14.00;99.90
10249;DHT22;5169;50.560;9.714;2022-10-16T06:13:25;14.00;99.90
10249;DHT22;5169;50.560;9.714;2022-10-16T06:15:50;14.00;99.90
10249;DHT22;5169;50.560;9.714;2022-10-16T06:18:18;14.00;99.90
10249;DHT22;5169;50.560;9.714;2022-10-16T06:20:44;14.00;99.90
10249;DHT22;5169;50.560;9.714;2022-10-16T06:23:12;13.90;99.90
10249;DHT22;5169;50.560;9.714;2022-10-16T06:25:37;13.90;99.90
10249;DHT22;5169;50.560;9.714;2022-10-16T06:28:03;13.90;99.90
10249;DHT22;5169;50.560;9.714;2022-10-16T06:30:29;14.00;99.90
10249;DHT22;5169;50.560;9.714;2022-10-16T06:32:54;13.90;99.90
10249;DHT22;5169;50.560;9.714;2022-10-16T06:35:22;14.00;99.90
10249;DHT22;5169;50.560;9.714;2022-10-16T06:37:49;14.00;99.90
10249;DHT22;5169;50.560;9.714;2022-10-16T06:40:19;14.00;99.90
10249;DHT22;5169;50.560;9.714;2022-10-16T06:42:47;14.10;99.90
10249;DHT22;5169;50.560;9.714;2022-10-16T06:45:13;14.10;99.90
10249;DHT22;5169;50.560;9.714;2022-10-16T06:47:38;14.10;99.90
10249;DHT22;5169;50.560;9.714;2022-10-16T06:50:05;14.10;99.90
10249;DHT22;5169;50.560;9.714;2022-10-16T06:52:32;14.10;99.90
10249;DHT22;5169;50.560;9.714;2022-10-16T06:54:58;14.20;99.90
10249;DHT22;5169;50.560;9.714;2022-10-16T06:57:24;14.20;99.90
10249;DHT22;5169;50.560;9.714;2022-10-16T06:59:56;14.20;99.90
10249;DHT22;5169;50.560;9.714;2022-10-16T07:02:25;14.20;99.90
10249;DHT22;5169;50.560;9.714;2022-10-16T07:04:50;14.20;99.90
10249;DHT22;5169;50.560;9.714;2022-10-16T07:07:16;14.40;99.90
10249;DHT22;5169;50.560;9.714;2022-10-16T07:09:41;14.30;99.90
10249;DHT22;5169;50.560;9.714;2022-10-16T07:12:12;14.30;99.90
10249;DHT22;5169;50.560;9.714;2022-10-16T07:14:37;14.30;99.90
10249;DHT22;5169;50.560;9.714;2022-10-16T07:17:03;14.30;99.90
10249;DHT22;5169;50.560;9.714;2022-10-16T07:19:29;14.30;99.90
10249;DHT22;5169;50.560;9.714;2022-10-16T07:21:54;14.30;99.90
10249;DHT22;5169;50.560;9.714;2022-10-16T07:24:20;14.40;99.90
10249;DHT22;5169;50.560;9.714;2022-10-16T07:26:48;14.50;99.90
10249;DHT22;5169;50.560;9.714;2022-10-16T07:29:16;14.50;99.90
10249;DHT22;5169;50.560;9.714;2022-10-16T07:31:42;14.50;99.90
10249;DHT22;5169;50.560;9.714;2022-10-16T07:34:11;14.60;99.90
10249;DHT22;5169;50.560;9.714;2022-10-16T07:36:43;14.70;99.90
10249;DHT22;5169;50.560;9.714;2022-10-16T07:39:08;14.80;99.90
10249;DHT22;5169;50.560;9.714;2022-10-16T07:41:34;14.90;99.90
10249;DHT22;5169;50.560;9.714;2022-10-16T07:44:04;14.90;99.90
10249;DHT22;5169;50.560;9.714;2022-10-16T07:46:31;14.90;99.90
10249;DHT22;5169;50.560;9.714;2022-10-16T07:48:59;15.00;99.90
10249;DHT22;5169;50.560;9.714;2022-10-16T07:51:34;15.10;99.90
10249;DHT22;5169;50.560;9.714;2022-10-16T07:54:03;15.10;99.90
10249;DHT22;5169;50.560;9.714;2022-10-16T07:56:31;15.20;99.90
10249;DHT22;5169;50.560;9.714;2022-10-16T07:58:58;15.30;99.90
10249;DHT22;5169;50.560;9.714;2022-10-16T08:01:24;15.40;99.90
10249;DHT22;5169;50.560;9.714;2022-10-16T08:03:51;15.40;99.90
10249;DHT22;5169;50.560;9.714;2022-10-16T08:06:18;15.60;99.90
10249;DHT22;5169;50.560;9.714;2022-10-16T08:08:44;15.50;99.90
10249;DHT22;5169;50.560;9.714;2022-10-16T08:11:10;15.60;99.90
10249;DHT22;5169;50.560;9.714;2022-10-16T08:13:38;15.70;99.90
10249;DHT22;5169;50.560;9.714;2022-10-16T08:16:03;15.80;99.90
10249;DHT22;5169;50.560;9.714;2022-10-16T08:18:39;15.80;99.90
10249;DHT22;5169;50.560;9.714;2022-10-16T08:21:06;15.90;99.90
10249;DHT22;5169;50.560;9.714;2022-10-16T08:23:33;16.00;99.90
10249;DHT22;5169;50.560;9.714;2022-10-16T08:26:04;16.00;99.90
10249;DHT22;5169;50.560;9.714;2022-10-16T08:28:30;16.00;99.90
10249;DHT22;5169;50.560;9.714;2022-10-16T08:30:56;16.00;99.90
10249;DHT22;5169;50.560;9.714;2022-10-16T08:33:22;16.10;99.90
10249;DHT22;5169;50.560;9.714;2022-10-16T08:35:57;16.00;99.90
10249;DHT22;5169;50.560;9.714;2022-10-16T08:38:22;16.10;99.90
10249;DHT22;5169;50.560;9.714;2022-10-16T08:40:50;16.10;99.90
10249;DHT22;5169;50.560;9.714;2022-10-16T08:48:51;16.10;99.90
10249;DHT22;5169;50.560;9.714;2022-10-16T08:51:22;16.00;99.90
10249;DHT22;5169;50.560;9.714;2022-10-16T08:56:56;16.10;99.90
10249;DHT22;5169;50.560;9.714;2022-10-16T08:59:22;16.10;99.90
10249;DHT22;5169;50.560;9.714;2022-10-16T09:01:50;16.10;99.90
10249;DHT22;5169;50.560;9.714;2022-10-16T09:12:57;16.30;99.90
10249;DHT22;5169;50.560;9.714;2022-10-16T09:18:45;16.40;99.90
10249;DHT22;5169;50.560;9.714;2022-10-16T09:21:17;16.50;99.90
10249;DHT22;5169;50.560;9.714;2022-10-16T09:23:44;16.50;99.90
10249;DHT22;5169;50.560;9.714;2022-10-16T09:26:13;16.40;99.90
10249;DHT22;5169;50.560;9.714;2022-10-16T09:28:40;16.40;99.90
10249;DHT22;5169;50.560;9.714;2022-10-16T09:31:13;16.50;99.90
10249;DHT22;5169;50.560;9.714;2022-10-16T09:33:41;16.50;99.90
10249;DHT22;5169;50.560;9.714;2022-10-16T09:36:09;16.50;99.90
10249;DHT22;5169;50.560;9.714;2022-10-16T09:38:40;16.40;99.90
10249;DHT22;5169;50.560;9.714;2022-10-16T09:41:22;16.30;99.90
10249;DHT22;5169;50.560;9.714;2022-10-16T09:43:54;16.20;99.90
10249;DHT22;5169;50.560;9.714;2022-10-16T09:48:50;16.10;99.90
10249;DHT22;5169;50.560;9.714;2022-10-16T09:51:29;16.10;99.90
10249;DHT22;5169;50.560;9.714;2022-10-16T09:54:00;16.00;99.90
10249;DHT22;5169;50.560;9.714;2022-10-16T09:56:34;15.90;99.90
10249;DHT22;5169;50.560;9.714;2022-10-16T09:59:10;15.90;99.90
10249;DHT22;5169;50.560;9.714;2022-10-16T10:01:44;15.80;99.90
10249;DHT22;5169;50.560;9.714;2022-10-16T10:04:11;15.80;99.90
10249;DHT22;5169;50.560;9.714;2022-10-16T10:06:50;15.70;99.90
10249;DHT22;5169;50.560;9.714;2022-10-16T10:11:56;15.80;99.90
10249;DHT22;5169;50.560;9.714;2022-10-16T10:17:02;16.40;99.90
10249;DHT22;5169;50.560;9.714;2022-10-16T10:19:28;17.10;99.90
10249;DHT22;5169;50.560;9.714;2022-10-16T10:21:54;17.70;99.90
10249;DHT22;5169;50.560;9.714;2022-10-16T10:24:22;17.70;99.90
10249;DHT22;5169;50.560;9.714;2022-10-16T10:26:55;17.70;99.90
10249;DHT22;5169;50.560;9.714;2022-10-16T10:35:02;16.90;99.90
10249;DHT22;5169;50.560;9.714;2022-10-16T10:46:04;16.50;99.90
10249;DHT22;5169;50.560;9.714;2022-10-16T11:01:10;16.40;99.90
10249;DHT22;5169;50.560;9.714;2022-10-16T11:11:52;16.50;99.90
10249;DHT22;5169;50.560;9.714;2022-10-16T11:25:28;16.30;99.90
10249;DHT22;5169;50.560;9.714;2022-10-16T11:30:28;16.30;99.90
10249;DHT22;5169;50.560;9.714;2022-10-16T11:35:39;16.40;99.90
10249;DHT22;5169;50.560;9.714;2022-10-16T11:38:15;16.40;99.90
10249;DHT22;5169;50.560;9.714;2022-10-16T11:40:50;16.40;99.90
10249;DHT22;5169;50.560;9.714;2022-10-16T11:43:53;16.50;99.90
10249;DHT22;5169;50.560;9.714;2022-10-16T11:46:24;16.50;99.90
10249;DHT22;5169;50.560;9.714;2022-10-16T11:49:13;16.80;99.90
10249;DHT22;5169;50.560;9.714;2022-10-16T11:51:48;16.90;99.90
10249;DHT22;5169;50.560;9.714;2022-10-16T11:54:51;17.30;99.90
10249;DHT22;5169;50.560;9.714;2022-10-16T11:57:29;17.60;99.90
10249;DHT22;5169;50.560;9.714;2022-10-16T12:02:54;17.90;99.90
10249;DHT22;5169;50.560;9.714;2022-10-16T12:08:13;19.00;99.90
10249;DHT22;5169;50.560;9.714;2022-10-16T12:10:42;19.80;99.90
10249;DHT22;5169;50.560;9.714;2022-10-16T12:13:40;19.90;99.90
10249;DHT22;5169;50.560;9.714;2022-10-16T12:16:22;19.90;99.90
10249;DHT22;5169;50.560;9.714;2022-10-16T12:18:48;20.50;99.90
10249;DHT22;5169;50.560;9.714;2022-10-16T12:21:15;21.00;99.90
10249;DHT22;5169;50.560;9.714;2022-10-16T12:23:49;21.20;99.90
10249;DHT22;5169;50.560;9.714;2022-10-16T12:26:27;20.90;99.90
10249;DHT22;5169;50.560;9.714;2022-10-16T12:28:54;20.60;99.90
10249;DHT22;5169;50.560;9.714;2022-10-16T12:31:23;20.00;99.90
10249;DHT22;5169;50.560;9.714;2022-10-16T12:34:01;20.30;99.90
10249;DHT22;5169;50.560;9.714;2022-10-16T12:36:33;20.50;99.90
10249;DHT22;5169;50.560;9.714;2022-10-16T12:39:00;20.30;99.90
10249;DHT22;5169;50.560;9.714;2022-10-16T12:41:31;20.00;99.90
10249;DHT22;5169;50.560;9.714;2022-10-16T12:43:59;19.90;99.90
10249;DHT22;5169;50.560;9.714;2022-10-16T12:51:42;18.70;99.90
10249;DHT22;5169;50.560;9.714;2022-10-16T13:00:30;18.50;99.90
10249;DHT22;5169;50.560;9.714;2022-10-16T13:14:29;18.40;99.90
10249;DHT22;5169;50.560;9.714;2022-10-16T13:30:14;18.60;99.90
10249;DHT22;5169;50.560;9.714;2022-10-16T13:32:47;18.80;99.90
10249;DHT22;5169;50.560;9.714;2022-10-16T13:35:28;18.80;99.90
10249;DHT22;5169;50.560;9.714;2022-10-16T13:40:57;18.30;99.90
10249;DHT22;5169;50.560;9.714;2022-10-16T13:43:59;18.20;99.90
10249;DHT22;5169;50.560;9.714;2022-10-16T13:46:26;18.20;99.90
10249;DHT22;5169;50.560;9.714;2022-10-16T13:49:05;18.20;99.90
10249;DHT22;5169;50.560;9.714;2022-10-16T13:51:34;18.20;99.90
10249;DHT22;5169;50.560;9.714;2022-10-16T13:54:01;18.10;99.90
10249;DHT22;5169;50.560;9.714;2022-10-16T13:56:33;18.00;99.90
10249;DHT22;5169;50.560;9.714;2022-10-16T13:59:04;17.90;99.90
10249;DHT22;5169;50.560;9.714;2022-10-16T14:04:08;17.90;99.90
10249;DHT22;5169;50.560;9.714;2022-10-16T14:06:35;18.10;99.90
10249;DHT22;5169;50.560;9.714;2022-10-16T14:09:34;18.10;99.90
10249;DHT22;5169;50.560;9.714;2022-10-16T14:11:57;18.10;99.90
10249;DHT22;5169;50.560;9.714;2022-10-16T14:14:24;18.10;99.90
10249;DHT22;5169;50.560;9.714;2022-10-16T14:16:50;18.20;99.90
10249;DHT22;5169;50.560;9.714;2022-10-16T14:19:25;18.20;99.90
10249;DHT22;5169;50.560;9.714;2022-10-16T14:21:54;18.20;99.90
10249;DHT22;5169;50.560;9.714;2022-10-16T14:24:27;18.30;99.90
10249;DHT22;5169;50.560;9.714;2022-10-16T14:26:53;18.30;99.90
10249;DHT22;5169;50.560;9.714;2022-10-16T14:29:22;18.40;99.90
10249;DHT22;5169;50.560;9.714;2022-10-16T14:34:25;18.60;99.90
10249;DHT22;5169;50.560;9.714;2022-10-16T14:36:53;18.60;99.90
10249;DHT22;5169;50.560;9.714;2022-10-16T14:39:25;18.50;99.90
10249;DHT22;5169;50.560;9.714;2022-10-16T14:41:52;18.40;99.90
10249;DHT22;5169;50.560;9.714;2022-10-16T14:44:27;18.40;99.90
10249;DHT22;5169;50.560;9.714;2022-10-16T14:46:53;18.40;99.90
10249;DHT22;5169;50.560;9.714;2022-10-16T14:49:22;18.20;99.90
10249;DHT22;5169;50.560;9.714;2022-10-16T14:51:51;18.30;99.90
10249;DHT22;5169;50.560;9.714;2022-10-16T14:54:18;18.40;99.90
10249;DHT22;5169;50.560;9.714;2022-10-16T14:56:50;18.30;99.90
10249;DHT22;5169;50.560;9.714;2022-10-16T14:59:30;18.30;99.90
10249;DHT22;5169;50.560;9.714;2022-10-16T15:02:09;18.20;99.90
10249;DHT22;5169;50.560;9.714;2022-10-16T15:04:42;18.10;99.90
10249;DHT22;5169;50.560;9.714;2022-10-16T15:07:08;18.00;99.90
10249;DHT22;5169;50.560;9.714;2022-10-16T15:09:33;17.90;99.90
10249;DHT22;5169;50.560;9.714;2022-10-16T15:11:59;17.90;99.90
10249;DHT22;5169;50.560;9.714;2022-10-16T15:14:25;17.80;99.90
10249;DHT22;5169;50.560;9.714;2022-10-16T15:16:53;17.70;99.90
10249;DHT22;5169;50.560;9.714;2022-10-16T15:19:21;17.70;99.90
10249;DHT22;5169;50.560;9.714;2022-10-16T15:21:49;17.70;99.90
10249;DHT22;5169;50.560;9.714;2022-10-16T15:24:16;17.80;99.90
10249;DHT22;5169;50.560;9.714;2022-10-16T15:26:41;17.70;99.90
10249;DHT22;5169;50.560;9.714;2022-10-16T15:29:07;17.70;99.90
10249;DHT22;5169;50.560;9.714;2022-10-16T15:31:33;17.60;99.90
10249;DHT22;5169;50.560;9.714;2022-10-16T15:33:59;17.50;99.90
10249;DHT22;5169;50.560;9.714;2022-10-16T15:36:34;17.40;99.90
10249;DHT22;5169;50.560;9.714;2022-10-16T15:39:13;17.50;99.90
10249;DHT22;5169;50.560;9.714;2022-10-16T15:41:39;17.40;99.90
10249;DHT22;5169;50.560;9.714;2022-10-16T15:44:05;17.50;99.90
10249;DHT22;5169;50.560;9.714;2022-10-16T15:46:30;17.50;99.90
10249;DHT22;5169;50.560;9.714;2022-10-16T15:48:58;17.40;99.90
10249;DHT22;5169;50.560;9.714;2022-10-16T15:51:25;17.40;99.90
10249;DHT22;5169;50.560;9.714;2022-10-16T15:53:58;17.40;99.90
10249;DHT22;5169;50.560;9.714;2022-10-16T15:56:24;17.30;99.90
10249;DHT22;5169;50.560;9.714;2022-10-16T15:58:53;17.30;99.90
10249;DHT22;5169;50.560;9.714;2022-10-16T16:01:19;17.40;99.90
10249;DHT22;5169;50.560;9.714;2022-10-16T16:03:45;17.30;99.90
10249;DHT22;5169;50.560;9.714;2022-10-16T16:06:12;17.30;99.90
10249;DHT22;5169;50.560;9.714;2022-10-16T16:08:40;17.30;99.90
10249;DHT22;5169;50.560;9.714;2022-10-16T16:11:08;17.30;99.90
10249;DHT22;5169;50.560;9.714;2022-10-16T16:13:34;17.30;99.90
10249;DHT22;5169;50.560;9.714;2022-10-16T16:16:05;17.30;99.90
10249;DHT22;5169;50.560;9.714;2022-10-16T16:18:31;17.20;99.90
10249;DHT22;5169;50.560;9.714;2022-10-16T16:20:57;17.20;99.90
10249;DHT22;5169;50.560;9.714;2022-10-16T16:23:22;17.20;99.90
10249;DHT22;5169;50.560;9.714;2022-10-16T16:26:12;17.10;99.90
10249;DHT22;5169;50.560;9.714;2022-10-16T16:28:39;17.10;99.90
10249;DHT22;5169;50.560;9.714;2022-10-16T16:31:05;17.00;99.90
10249;DHT22;5169;50.560;9.714;2022-10-16T16:33:31;16.90;99.90
10249;DHT22;5169;50.560;9.714;2022-10-16T16:36:01;16.80;99.90
10249;DHT22;5169;50.560;9.714;2022-10-16T16:38:29;16.80;99.90
10249;DHT22;5169;50.560;9.714;2022-10-16T16:40:56;16.80;99.90
10249;DHT22;5169;50.560;9.714;2022-10-16T16:43:26;16.70;99.90
10249;DHT22;5169;50.560;9.714;2022-10-16T16:45:53;16.70;99.90
10249;DHT22;5169;50.560;9.714;2022-10-16T16:48:22;16.70;99.90
10249;DHT22;5169;50.560;9.714;2022-10-16T16:50:48;16.60;99.90
10249;DHT22;5169;50.560;9.714;2022-10-16T16:53:14;16.70;99.90
10249;DHT22;5169;50.560;9.714;2022-10-16T16:55:42;16.70;99.90
10249;DHT22;5169;50.560;9.714;2022-10-16T16:58:10;16.70;99.90
10249;DHT22;5169;50.560;9.714;2022-10-16T17:00:45;16.60;99.90
10249;DHT22;5169;50.560;9.714;2022-10-16T17:03:16;16.60;99.90
10249;DHT22;5169;50.560;9.714;2022-10-16T17:05:42;16.60;99.90
10249;DHT22;5169;50.560;9.714;2022-10-16T17:08:08;16.60;99.90
10249;DHT22;5169;50.560;9.714;2022-10-16T17:10:34;16.60;99.90
10249;DHT22;5169;50.560;9.714;2022-10-16T17:12:59;16.60;99.90
10249;DHT22;5169;50.560;9.714;2022-10-16T17:15:25;16.60;99.90
10249;DHT22;5169;50.560;9.714;2022-10-16T17:17:55;16.60;99.90
10249;DHT22;5169;50.560;9.714;2022-10-16T17:20:23;16.60;99.90
10249;DHT22;5169;50.560;9.714;2022-10-16T17:22:49;16.60;99.90
10249;DHT22;5169;50.560;9.714;2022-10-16T17:25:14;16.60;99.90
10249;DHT22;5169;50.560;9.714;2022-10-16T17:27:40;16.70;99.90
10249;DHT22;5169;50.560;9.714;2022-10-16T17:30:10;16.80;99.90
10249;DHT22;5169;50.560;9.714;2022-10-16T17:32:38;16.70;99.90
10249;DHT22;5169;50.560;9.714;2022-10-16T17:35:06;16.60;99.90
10249;DHT22;5169;50.560;9.714;2022-10-16T17:37:33;16.60;99.90
10249;DHT22;5169;50.560;9.714;2022-10-16T17:39:58;16.60;99.90
10249;DHT22;5169;50.560;9.714;2022-10-16T17:42:24;16.60;99.90
10249;DHT22;5169;50.560;9.714;2022-10-16T17:44:50;16.60;99.90
10249;DHT22;5169;50.560;9.714;2022-10-16T17:47:15;16.60;99.90
10249;DHT22;5169;50.560;9.714;2022-10-16T17:49:41;16.60;99.90
10249;DHT22;5169;50.560;9.714;2022-10-16T17:52:07;16.70;99.90
10249;DHT22;5169;50.560;9.714;2022-10-16T17:54:32;16.70;99.90
10249;DHT22;5169;50.560;9.714;2022-10-16T17:56:58;16.70;99.90
10249;DHT22;5169;50.560;9.714;2022-10-16T17:59:24;16.60;99.90
10249;DHT22;5169;50.560;9.714;2022-10-16T18:01:52;16.50;99.90
10249;DHT22;5169;50.560;9.714;2022-10-16T18:04:22;16.40;99.90
10249;DHT22;5169;50.560;9.714;2022-10-16T18:06:48;16.50;99.90
10249;DHT22;5169;50.560;9.714;2022-10-16T18:09:16;16.40;99.90
10249;DHT22;5169;50.560;9.714;2022-10-16T18:11:42;16.30;99.90
10249;DHT22;5169;50.560;9.714;2022-10-16T18:14:13;16.20;99.90
10249;DHT22;5169;50.560;9.714;2022-10-16T18:16:39;16.10;99.90
10249;DHT22;5169;50.560;9.714;2022-10-16T18:19:07;16.10;99.90